Layton, Utah
Current Conditions -  °F | °C
As of 7:26 AM on Thursday 18 Dec 2014 (Local Time) from KHIF Reporting Station
Light Snow Light Snow  
Wind Chill: 24°   Ceiling: 1800
Heat Index: 32°   Visibility: 4mi
Dew Point: 25°   Wind: 10mph
Humidity: 75%   Direction: 120°ESE
Pressure: 30.11"   Gusts: NA
Location:  41.07°N, 111.96°W
Report Text: KHIF 181426Z 12009KT 4SM -SN BR FEW013 BKN018 BKN025 OVC032 00/M04 A3011 RMK AO2A
Loading
Personal Weather Stations






























Interactive Weather Map New forecast layout! Learn more

10-Day Weather Forecast

Advertisements
Track Severe Weather on mobile